Time;durP1;ratioP1;P1;durP2;ratioP2;P2;SDS_P1;SDS_P2;PMS_P1;PMS_P2;Temp;Humidity;BMP_temperature;BMP_pressure;BME280_temperature;BME280_humidity;BME280_pressure;Samples;Min_cycle;Max_cycle;Signal;HPM_P1;HPM_P2
2023/10/28 00:02:20;;;;;;;;;;;;;;;21.98;62.70;100227.53;6245215;23;19916;-85
2023/10/28 00:04:45;;;;;;;;;;;;;;;22.00;62.62;100227.56;6244091;23;19946;-84
2023/10/28 00:07:11;;;;;;;;;;;;;;;22.04;62.45;100222.22;6244731;23;20388;-85
2023/10/28 00:09:36;;;;;;;;;;;;;;;22.03;62.58;100217.78;6243115;23;20386;-83
2023/10/28 00:12:01;;;;;;;;;;;;;;;22.04;62.50;100227.53;6244295;23;20386;-85
2023/10/28 00:14:27;;;;;;;;;;;;;;;22.03;62.44;100235.50;6243173;23;19912;-84
2023/10/28 00:16:53;;;;;;;;;;;;;;;22.01;62.55;100240.81;6243097;23;20262;-84
2023/10/28 00:19:19;;;;;;;;;;;;;;;22.00;62.59;100240.84;6243234;23;19918;-85
2023/10/28 00:21:44;;;;;;;;;;;;;;;22.03;62.59;100240.81;6242722;23;19986;-84
2023/10/28 00:24:10;;;;;;;;;;;;;;;22.05;62.42;100260.31;6243017;23;19935;-85
2023/10/28 00:26:35;;;;;;;;;;;;;;;22.03;62.52;100264.75;6244905;23;19911;-85
2023/10/28 00:29:01;;;;;;;;;;;;;;;22.05;62.35;100261.19;6243264;23;19914;-84
2023/10/28 00:31:28;;;;;;;;;;;;;;;22.00;62.50;100268.31;6218145;23;19919;-85
2023/10/28 00:33:53;;;;;;;;;;;;;;;22.01;62.46;100259.44;6244493;23;19920;-84
2023/10/28 00:36:19;;;;;;;;;;;;;;;22.02;62.48;100260.34;6244633;23;19908;-84
2023/10/28 00:38:44;;;;;;;;;;;;;;;22.03;62.45;100259.44;6242612;23;19943;-83
2023/10/28 00:41:10;;;;;;;;;;;;;;;22.02;62.53;100257.69;6243474;23;19908;-84
2023/10/28 00:43:36;;;;;;;;;;;;;;;22.01;62.47;100246.13;6217123;23;19983;-84
2023/10/28 00:46:03;;;;;;;;;;;;;;;22.03;62.49;100248.81;6243577;23;19916;-83
2023/10/28 00:48:28;;;;;;;;;;;;;;;22.03;62.43;100240.81;6243424;23;19961;-83
2023/10/28 00:50:54;;;;;;;;;;;;;;;22.02;62.45;100239.06;6242874;23;19911;-83
2023/10/28 00:53:20;;;;;;;;;;;;;;;22.03;62.39;100236.38;6217593;23;19907;-83
2023/10/28 00:55:45;;;;;;;;;;;;;;;22.03;62.45;100239.03;6240314;23;19931;-84
2023/10/28 00:58:11;;;;;;;;;;;;;;;22.03;62.48;100246.16;6241881;23;19981;-86
2023/10/28 01:00:37;;;;;;;;;;;;;;;22.02;62.49;100255.03;6243063;23;20396;-84
2023/10/28 01:03:03;;;;;;;;;;;;;;;22.06;62.32;100263.00;6242618;23;19912;-85
2023/10/28 01:05:30;;;;;;;;;;;;;;;22.00;62.35;100255.03;6217164;23;19922;-84
2023/10/28 01:07:58;;;;;;;;;;;;;;;22.00;62.49;100252.34;6244458;23;19908;-85
2023/10/28 01:10:33;;;;;;;;;;;;;;;22.03;62.39;100254.13;6243061;23;19912;-84
2023/10/28 01:12:59;;;;;;;;;;;;;;;22.02;62.42;100261.22;6242039;23;20286;-84
2023/10/28 01:15:26;;;;;;;;;;;;;;;22.04;62.38;100266.53;6242806;23;19986;-84
2023/10/28 01:17:51;;;;;;;;;;;;;;;22.02;62.30;100263.88;6243091;23;19938;-84
2023/10/28 01:20:17;;;;;;;;;;;;;;;22.02;62.42;100270.97;6217022;23;19911;-83
2023/10/28 01:22:42;;;;;;;;;;;;;;;22.03;62.44;100272.72;6241994;23;19982;-84
2023/10/28 01:25:09;;;;;;;;;;;;;;;22.10;62.16;100278.06;6242148;23;19973;-83
2023/10/28 01:27:35;;;;;;;;;;;;;;;22.10;62.08;100275.41;6244063;23;19914;-84
2023/10/28 01:30:00;;;;;;;;;;;;;;;22.09;62.12;100284.25;6241987;23;19907;-84
2023/10/28 01:32:26;;;;;;;;;;;;;;;22.09;62.10;100284.25;6242663;23;19946;-84
2023/10/28 01:34:52;;;;;;;;;;;;;;;22.12;62.09;100272.75;6242028;23;20332;-83
2023/10/28 01:37:18;;;;;;;;;;;;;;;22.11;62.18;100279.81;6242908;23;19954;-84
2023/10/28 01:39:46;;;;;;;;;;;;;;;22.12;62.10;100286.03;6243028;23;19908;-84
2023/10/28 01:42:45;;;;;;;;;;;;;;;22.11;62.11;100281.59;6244212;23;19911;-84
2023/10/28 01:45:42;;;;;;;;;;;;;;;22.08;62.18;100285.16;6243951;23;19915;-84
2023/10/28 01:48:07;;;;;;;;;;;;;;;22.08;62.31;100276.28;6242621;23;19982;-84
2023/10/28 01:50:32;;;;;;;;;;;;;;;22.05;62.31;100285.13;6216953;23;20005;-83
2023/10/28 01:52:58;;;;;;;;;;;;;;;22.06;62.20;100278.06;6243705;23;20359;-84
2023/10/28 01:55:24;;;;;;;;;;;;;;;22.06;62.20;100288.69;6243621;23;19930;-84
2023/10/28 01:57:49;;;;;;;;;;;;;;;22.04;62.26;100277.19;6240992;23;19935;-84
2023/10/28 02:00:16;;;;;;;;;;;;;;;22.04;62.40;100279.84;6243384;23;20022;-83
2023/10/28 02:02:45;;;;;;;;;;;;;;;22.06;62.32;100286.91;6242306;23;19908;-84
2023/10/28 02:05:10;;;;;;;;;;;;;;;22.06;62.36;100291.38;6241621;23;20152;-84
2023/10/28 02:07:36;;;;;;;;;;;;;;;22.04;62.31;100288.69;6242468;23;20370;-84
2023/10/28 02:10:01;;;;;;;;;;;;;;;22.07;62.16;100295.78;6216984;23;20355;-84
2023/10/28 02:12:27;;;;;;;;;;;;;;;22.06;62.28;100286.03;6243017;23;19918;-84
2023/10/28 02:14:52;;;;;;;;;;;;;;;22.05;62.26;100293.09;6243881;23;19977;-84
2023/10/28 02:17:18;;;;;;;;;;;;;;;22.03;62.26;100296.66;6243657;23;20343;-84
2023/10/28 02:19:44;;;;;;;;;;;;;;;22.03;62.15;100297.53;6242415;23;19918;-84
2023/10/28 02:22:10;;;;;;;;;;;;;;;22.05;62.10;100298.44;6243348;23;19935;-84
2023/10/28 02:24:36;;;;;;;;;;;;;;;22.01;62.21;100299.31;6242542;23;19942;-84
2023/10/28 02:27:01;;;;;;;;;;;;;;;22.04;62.23;100298.44;6241502;23;20271;-84
2023/10/28 02:29:26;;;;;;;;;;;;;;;22.03;62.16;100297.53;6242319;23;19986;-84
2023/10/28 02:31:52;;;;;;;;;;;;;;;21.99;62.36;100302.88;6243099;23;19907;-84
2023/10/28 02:34:17;;;;;;;;;;;;;;;22.00;62.28;100309.97;6241391;23;20374;-84
2023/10/28 02:36:43;;;;;;;;;;;;;;;21.96;62.38;100304.63;6242894;23;19907;-83
2023/10/28 02:39:10;;;;;;;;;;;;;;;21.99;62.26;100305.53;6241516;23;19908;-84
2023/10/28 02:41:38;;;;;;;;;;;;;;;21.98;62.37;100302.00;6242316;23;19951;-84
2023/10/28 02:44:04;;;;;;;;;;;;;;;21.99;62.30;100302.88;6242057;23;19912;-85
2023/10/28 02:46:30;;;;;;;;;;;;;;;21.98;62.38;100304.66;6242579;23;19915;-84
2023/10/28 02:48:55;;;;;;;;;;;;;;;21.99;62.12;100309.06;6242033;23;19977;-84
2023/10/28 02:51:20;;;;;;;;;;;;;;;22.01;62.17;100309.94;6241474;23;19931;-84
2023/10/28 02:53:46;;;;;;;;;;;;;;;21.99;62.31;100308.19;6243970;23;19908;-84
2023/10/28 02:56:11;;;;;;;;;;;;;;;21.99;62.34;100309.06;6241280;23;20232;-85
2023/10/28 02:58:38;;;;;;;;;;;;;;;21.97;62.33;100310.88;6241399;23;20338;-85
2023/10/28 03:01:07;;;;;;;;;;;;;;;21.99;62.09;100313.50;6241755;23;19907;-84
2023/10/28 03:03:33;;;;;;;;;;;;;;;22.00;62.35;100320.59;6214445;23;19907;-84
2023/10/28 03:05:59;;;;;;;;;;;;;;;21.98;62.22;100328.56;6239480;23;19923;-84
2023/10/28 03:08:25;;;;;;;;;;;;;;;21.95;62.17;100337.44;6240832;23;19911;-84
2023/10/28 03:10:50;;;;;;;;;;;;;;;21.96;62.27;100338.31;6243213;23;19912;-87
2023/10/28 03:13:16;;;;;;;;;;;;;;;21.94;62.31;100345.41;6215966;23;20350;-84
2023/10/28 03:15:44;;;;;;;;;;;;;;;21.93;62.25;100339.22;6217828;23;19912;-84
2023/10/28 03:18:09;;;;;;;;;;;;;;;21.92;62.42;100339.19;6243715;23;20398;-85
2023/10/28 03:20:35;;;;;;;;;;;;;;;21.94;62.40;100348.06;6244496;23;19912;-85
2023/10/28 03:23:00;;;;;;;;;;;;;;;21.93;62.20;100349.84;6242765;23;20258;-85
2023/10/28 03:25:27;;;;;;;;;;;;;;;21.96;62.12;100349.84;6220181;23;20394;-83
2023/10/28 03:27:52;;;;;;;;;;;;;;;21.94;62.28;100354.25;6245730;23;19958;-84
2023/10/28 03:30:18;;;;;;;;;;;;;;;21.89;62.33;100348.06;6244211;23;19950;-83
2023/10/28 03:32:44;;;;;;;;;;;;;;;21.92;62.40;100358.69;6242404;23;19914;-85
2023/10/28 03:35:09;;;;;;;;;;;;;;;21.94;62.22;100362.25;6244154;23;20374;-85
2023/10/28 03:37:37;;;;;;;;;;;;;;;21.95;62.25;100358.72;6244931;23;19911;-84
2023/10/28 03:40:03;;;;;;;;;;;;;;;21.92;62.30;100356.03;6243940;23;19914;-83
2023/10/28 03:42:28;;;;;;;;;;;;;;;21.91;62.35;100367.56;6218072;23;19991;-84
2023/10/28 03:44:54;;;;;;;;;;;;;;;21.91;62.24;100372.88;6241974;23;20402;-83
2023/10/28 03:47:21;;;;;;;;;;;;;;;21.92;62.32;100379.09;6244884;23;19985;-83
2023/10/28 03:49:46;;;;;;;;;;;;;;;21.90;62.36;100383.50;6243228;23;19908;-84
2023/10/28 03:52:12;;;;;;;;;;;;;;;21.92;62.18;100390.59;6217032;23;19988;-83
2023/10/28 03:54:38;;;;;;;;;;;;;;;21.90;62.33;100400.34;6242279;23;19912;-83
2023/10/28 03:57:04;;;;;;;;;;;;;;;21.90;62.28;100402.13;6241754;23;19908;-83
2023/10/28 03:59:30;;;;;;;;;;;;;;;21.88;62.29;100393.25;6243685;23;19912;-85
2023/10/28 04:01:56;;;;;;;;;;;;;;;21.87;62.40;100392.38;6242372;23;19995;-85
2023/10/28 04:04:21;;;;;;;;;;;;;;;21.86;62.46;100397.69;6241504;23;20360;-86
2023/10/28 04:06:47;;;;;;;;;;;;;;;21.86;62.35;100400.34;6244474;23;20197;-85
2023/10/28 04:09:14;;;;;;;;;;;;;;;21.85;62.30;100404.78;6242785;23;20355;-85
2023/10/28 04:11:39;;;;;;;;;;;;;;;21.85;62.29;100410.09;6242839;23;19954;-85
2023/10/28 04:14:05;;;;;;;;;;;;;;;21.87;62.32;100407.44;6243484;23;20570;-85
2023/10/28 04:16:30;;;;;;;;;;;;;;;21.84;62.35;100418.06;6241182;23;19908;-85
2023/10/28 04:18:56;;;;;;;;;;;;;;;21.84;62.33;100416.28;6242159;23;19954;-84
2023/10/28 04:21:21;;;;;;;;;;;;;;;21.86;62.42;100416.28;6241802;23;19939;-84
2023/10/28 04:23:47;;;;;;;;;;;;;;;21.83;62.50;100413.63;6242892;23;19907;-84
2023/10/28 04:26:12;;;;;;;;;;;;;;;21.85;62.32;100426.03;6240501;23;19912;-85
2023/10/28 04:28:38;;;;;;;;;;;;;;;21.85;62.27;100426.03;6241077;23;20034;-84
2023/10/28 04:31:03;;;;;;;;;;;;;;;21.83;62.37;100437.56;6243219;23;19915;-84
2023/10/28 04:33:29;;;;;;;;;;;;;;;21.83;62.44;100443.75;6243062;23;19934;-83
2023/10/28 04:35:54;;;;;;;;;;;;;;;21.83;62.36;100448.19;6243536;23;20248;-84
2023/10/28 04:38:23;;;;;;;;;;;;;;;21.84;62.45;100439.31;6239384;23;20334;-83
2023/10/28 04:40:51;;;;;;;;;;;;;;;21.87;62.32;100449.97;6240763;23;19947;-85
2023/10/28 04:43:16;;;;;;;;;;;;;;;21.86;62.31;100449.06;6241230;23;19914;-83
2023/10/28 04:45:42;;;;;;;;;;;;;;;21.81;62.47;100455.28;6241994;23;19912;-85
2023/10/28 04:48:11;;;;;;;;;;;;;;;21.81;62.45;100465.91;6242442;23;19912;-85
2023/10/28 04:50:36;;;;;;;;;;;;;;;21.82;62.42;100476.53;6215686;23;19912;-84
2023/10/28 04:53:02;;;;;;;;;;;;;;;21.80;62.47;100480.97;6241242;23;19966;-84
2023/10/28 04:55:27;;;;;;;;;;;;;;;21.84;62.31;100487.16;6240845;23;20544;-82
2023/10/28 04:57:53;;;;;;;;;;;;;;;21.84;62.32;100484.50;6243320;23;20259;-84
2023/10/28 05:00:19;;;;;;;;;;;;;;;21.84;62.29;100485.38;6243387;23;20270;-85
2023/10/28 05:02:45;;;;;;;;;;;;;;;21.84;62.28;100481.84;6242140;23;20726;-85
2023/10/28 05:05:10;;;;;;;;;;;;;;;21.88;62.20;100496.94;6241664;23;19939;-84
2023/10/28 05:07:36;;;;;;;;;;;;;;;21.87;62.21;100501.38;6240303;23;19908;-84
2023/10/28 05:10:01;;;;;;;;;;;;;;;21.88;62.16;100505.78;6242774;23;20351;-82
2023/10/28 05:12:27;;;;;;;;;;;;;;;21.89;62.02;100507.56;6215958;23;20349;-82
2023/10/28 05:14:52;;;;;;;;;;;;;;;21.89;62.02;100514.66;6243167;23;19965;-84
2023/10/28 05:17:18;;;;;;;;;;;;;;;21.82;62.22;100520.81;6241698;23;19994;-84
2023/10/28 05:19:43;;;;;;;;;;;;;;;21.79;62.41;100529.69;6241818;23;19908;-84
2023/10/28 05:22:09;;;;;;;;;;;;;;;21.88;62.15;100528.81;6241980;23;19912;-83
2023/10/28 05:24:34;;;;;;;;;;;;;;;21.88;61.95;100513.75;6242295;23;19915;-83
2023/10/28 05:26:59;;;;;;;;;;;;;;;21.86;62.15;100523.50;6240919;23;19911;-83
2023/10/28 05:29:25;;;;;;;;;;;;;;;21.86;62.14;100520.84;6242792;23;19994;-84
2023/10/28 05:31:56;;;;;;;;;;;;;;;21.91;62.01;100534.19;6242031;23;19919;-85
2023/10/28 05:34:23;;;;;;;;;;;;;;;21.86;62.18;100539.44;6241096;23;19925;-84
2023/10/28 05:36:48;;;;;;;;;;;;;;;21.87;62.05;100538.59;6241557;23;19918;-82
2023/10/28 05:39:14;;;;;;;;;;;;;;;21.85;62.17;100550.09;6241712;23;19912;-82
2023/10/28 05:41:39;;;;;;;;;;;;;;;21.85;62.14;100548.31;6242862;23;20006;-82
2023/10/28 05:44:04;;;;;;;;;;;;;;;21.88;62.04;100550.97;6242021;23;19985;-82
2023/10/28 05:46:43;;;;;;;;;;;;;;;21.85;62.20;100548.31;6241746;23;20305;-82
2023/10/28 05:49:12;;;;;;;;;;;;;;;21.86;62.21;100557.19;6214982;23;19911;-82
2023/10/28 05:51:38;;;;;;;;;;;;;;;21.86;62.30;100573.13;6241845;23;19915;-82
2023/10/28 05:54:04;;;;;;;;;;;;;;;21.87;62.15;100583.78;6215394;23;20034;-82
2023/10/28 05:56:30;;;;;;;;;;;;;;;21.87;62.15;100591.75;6213285;23;19912;-82
2023/10/28 05:58:58;;;;;;;;;;;;;;;21.89;62.14;100589.09;6241134;23;19914;-82
2023/10/28 06:01:26;;;;;;;;;;;;;;;21.88;62.08;100588.19;6215129;23;19911;-82
2023/10/28 06:03:52;;;;;;;;;;;;;;;21.91;62.07;100584.69;6243116;23;19966;-81
2023/10/28 06:06:17;;;;;;;;;;;;;;;21.89;62.18;100592.66;6215201;23;20310;-81
2023/10/28 06:08:42;;;;;;;;;;;;;;;21.90;62.05;100599.72;6240049;23;20446;-82
2023/10/28 06:11:09;;;;;;;;;;;;;;;21.91;62.01;100598.84;6239652;23;19912;-82
2023/10/28 06:13:35;;;;;;;;;;;;;;;21.91;62.02;100614.81;6242189;23;19953;-82
2023/10/28 06:16:01;;;;;;;;;;;;;;;21.91;62.02;100611.28;6242579;23;19908;-82
2023/10/28 06:18:26;;;;;;;;;;;;;;;21.91;61.96;100616.59;6242755;23;19965;-82
2023/10/28 06:20:52;;;;;;;;;;;;;;;21.92;62.06;100618.34;6242460;23;20331;-83
2023/10/28 06:23:17;;;;;;;;;;;;;;;21.93;61.93;100626.34;6240378;23;20110;-82
2023/10/28 06:25:43;;;;;;;;;;;;;;;21.94;61.93;100625.44;6238897;23;19912;-84
2023/10/28 06:28:10;;;;;;;;;;;;;;;21.94;61.95;100619.25;6242404;23;20271;-83
2023/10/28 06:30:36;;;;;;;;;;;;;;;21.93;62.07;100625.47;6216448;23;19914;-83
2023/10/28 06:33:02;;;;;;;;;;;;;;;21.92;62.05;100624.56;6241559;23;19907;-85
2023/10/28 06:35:28;;;;;;;;;;;;;;;21.92;62.01;100627.22;6239928;23;19952;-85
2023/10/28 06:37:53;;;;;;;;;;;;;;;21.92;62.15;100627.22;6240695;23;19915;-85
2023/10/28 06:40:19;;;;;;;;;;;;;;;21.92;62.05;100634.31;6241473;23;19914;-86
2023/10/28 06:42:44;;;;;;;;;;;;;;;21.93;61.96;100634.31;6242734;23;20006;-86
2023/10/28 06:45:10;;;;;;;;;;;;;;;21.95;61.91;100643.19;6240947;23;19955;-85
2023/10/28 06:47:35;;;;;;;;;;;;;;;21.95;61.87;100651.16;6241987;23;20029;-85
2023/10/28 06:50:04;;;;;;;;;;;;;;;21.92;62.05;100651.13;6242876;23;20404;-84
2023/10/28 06:52:30;;;;;;;;;;;;;;;21.90;62.19;100660.00;6216019;23;19965;-85
2023/10/28 06:54:57;;;;;;;;;;;;;;;21.89;62.18;100660.88;6241988;23;19911;-84
2023/10/28 06:57:23;;;;;;;;;;;;;;;21.91;62.11;100664.44;6243067;23;19912;-84
2023/10/28 06:59:49;;;;;;;;;;;;;;;21.91;62.22;100667.09;6242202;23;19915;-84
2023/10/28 07:02:15;;;;;;;;;;;;;;;21.89;62.22;100661.78;6241711;23;19911;-84
2023/10/28 07:04:41;;;;;;;;;;;;;;;21.88;62.32;100661.75;6243786;23;20370;-84
2023/10/28 07:07:08;;;;;;;;;;;;;;;21.90;62.25;100657.34;6243878;23;19973;-82
2023/10/28 07:09:35;;;;;;;;;;;;;;;21.91;62.36;100660.00;6244345;23;19965;-82
2023/10/28 07:12:01;;;;;;;;;;;;;;;21.92;62.29;100658.22;6243797;23;19907;-84
2023/10/28 07:14:26;;;;;;;;;;;;;;;21.90;62.35;100663.53;6242777;23;19919;-86
2023/10/28 07:16:51;;;;;;;;;;;;;;;21.88;62.42;100667.06;6243682;23;20393;-85
2023/10/28 07:19:17;;;;;;;;;;;;;;;21.86;62.85;100672.38;6244413;23;19907;-87
2023/10/28 07:21:42;;;;;;;;;;;;;;;21.85;62.76;100669.72;6244841;23;20310;-86
2023/10/28 07:24:11;;;;;;;;;;;;;;;21.86;62.90;100669.72;6216699;23;20404;-86
2023/10/28 07:26:37;;;;;;;;;;;;;;;21.88;62.80;100667.94;6242589;23;19919;-87
2023/10/28 07:29:04;;;;;;;;;;;;;;;21.86;62.83;100672.38;6216658;23;19908;-84
2023/10/28 07:31:29;;;;;;;;;;;;;;;21.88;62.85;100675.94;6241328;23;19930;-83
2023/10/28 07:33:56;;;;;;;;;;;;;;;21.86;62.81;100671.50;6241911;23;20395;-84
2023/10/28 07:36:22;;;;;;;;;;;;;;;21.87;62.87;100681.25;6243555;23;20307;-85
2023/10/28 07:38:48;;;;;;;;;;;;;;;21.93;62.66;100673.31;6242596;23;19985;-86
2023/10/28 07:41:14;;;;;;;;;;;;;;;21.91;62.63;100673.31;6241871;23;19912;-86
2023/10/28 07:43:39;;;;;;;;;;;;;;;21.95;62.74;100688.41;6243090;23;19998;-84
2023/10/28 07:46:04;;;;;;;;;;;;;;;21.88;63.10;100686.56;6242777;23;19915;-84
2023/10/28 07:48:30;;;;;;;;;;;;;;;21.91;62.87;100683.06;6243820;23;20523;-84
2023/10/28 07:50:57;;;;;;;;;;;;;;;21.92;62.79;100684.81;6245151;23;20340;-85
2023/10/28 07:53:22;;;;;;;;;;;;;;;21.94;62.78;100683.06;6244061;23;19908;-85
2023/10/28 07:55:48;;;;;;;;;;;;;;;21.97;62.83;100691.06;6245018;23;19946;-85
2023/10/28 07:58:13;;;;;;;;;;;;;;;21.96;62.85;100684.84;6244785;23;20033;-86
2023/10/28 08:00:39;;;;;;;;;;;;;;;21.95;62.98;100690.19;6216688;23;20266;-85
2023/10/28 08:03:04;;;;;;;;;;;;;;;21.92;63.25;100695.47;6244269;23;20300;-86
2023/10/28 08:05:30;;;;;;;;;;;;;;;21.95;63.12;100700.81;6242652;23;19954;-84
2023/10/28 08:07:55;;;;;;;;;;;;;;;22.00;63.01;100701.72;6244888;23;20339;-84
2023/10/28 08:10:27;;;;;;;;;;;;;;;21.94;63.13;100702.56;6243976;23;19942;-84
2023/10/28 08:12:53;;;;;;;;;;;;;;;21.92;63.44;100709.63;6242725;23;19907;-84
2023/10/28 08:15:22;;;;;;;;;;;;;;;21.96;63.11;100702.56;6242247;23;19919;-84
2023/10/28 08:17:47;;;;;;;;;;;;;;;22.00;63.41;100704.38;6242452;23;19908;-83
2023/10/28 08:20:17;;;;;;;;;;;;;;;22.02;63.05;100705.28;6217097;23;20255;-83
2023/10/28 08:22:44;;;;;;;;;;;;;;;21.99;63.37;100701.69;6243449;23;19908;-84
2023/10/28 08:25:10;;;;;;;;;;;;;;;21.99;63.24;100694.59;6243240;23;19915;-84
2023/10/28 08:27:36;;;;;;;;;;;;;;;21.96;63.23;100703.47;6217013;23;20401;-86
2023/10/28 08:30:03;;;;;;;;;;;;;;;21.97;63.36;100704.38;6216576;23;19911;-84
2023/10/28 08:32:30;;;;;;;;;;;;;;;22.02;63.19;100713.25;6244356;23;19978;-83
2023/10/28 08:34:56;;;;;;;;;;;;;;;21.92;63.65;100714.06;6243437;23;19916;-83
2023/10/28 08:37:23;;;;;;;;;;;;;;;22.01;63.40;100718.56;6215658;23;19915;-84
2023/10/28 08:39:48;;;;;;;;;;;;;;;21.96;63.59;100710.56;6241824;23;19920;-83
2023/10/28 08:42:14;;;;;;;;;;;;;;;21.99;63.44;100707.91;6243588;23;19907;-84
2023/10/28 08:44:40;;;;;;;;;;;;;;;21.95;63.85;100704.34;6243626;23;20351;-84
2023/10/28 08:47:08;;;;;;;;;;;;;;;21.93;63.91;100714.09;6243595;23;19912;-84
2023/10/28 08:49:40;;;;;;;;;;;;;;;21.95;63.84;100716.75;6243279;23;19907;-83
2023/10/28 08:52:06;;;;;;;;;;;;;;;21.97;63.88;100712.34;6243293;23;19911;-86
2023/10/28 08:54:32;;;;;;;;;;;;;;;21.96;63.84;100718.53;6243952;23;20028;-85
2023/10/28 08:56:58;;;;;;;;;;;;;;;21.91;63.88;100714.97;6242387;23;20344;-85
2023/10/28 08:59:25;;;;;;;;;;;;;;;21.94;64.08;100709.66;6243713;23;19912;-84
2023/10/28 09:01:50;;;;;;;;;;;;;;;21.96;63.99;100714.09;6243167;23;19938;-85
2023/10/28 09:04:16;;;;;;;;;;;;;;;21.96;64.07;100710.56;6242876;23;19908;-85
2023/10/28 09:06:42;;;;;;;;;;;;;;;22.01;63.79;100715.88;6243641;23;19966;-85
2023/10/28 09:09:12;;;;;;;;;;;;;;;21.94;64.09;100715.84;6240681;23;19986;-85
2023/10/28 09:11:38;;;;;;;;;;;;;;;21.98;64.22;100715.88;6242392;23;20290;-84
2023/10/28 09:14:07;;;;;;;;;;;;;;;22.00;64.01;100711.47;6243963;23;19907;-83
2023/10/28 09:16:33;;;;;;;;;;;;;;;22.03;63.92;100707.03;6216895;23;20296;-85
2023/10/28 09:18:59;;;;;;;;;;;;;;;21.96;64.40;100698.13;6242609;23;19918;-84
2023/10/28 09:21:24;;;;;;;;;;;;;;;21.92;64.88;100701.66;6217057;23;20007;-84
2023/10/28 09:23:51;;;;;;;;;;;;;;;21.97;64.93;100691.06;6243356;23;20421;-84
2023/10/28 09:26:18;;;;;;;;;;;;;;;22.01;64.60;100694.63;6243861;23;20336;-86
2023/10/28 09:28:47;;;;;;;;;;;;;;;22.00;64.70;100698.19;6216687;23;19915;-84
2023/10/28 09:31:12;;;;;;;;;;;;;;;21.98;65.24;100691.97;6242023;23;19908;-83
2023/10/28 09:33:37;;;;;;;;;;;;;;;21.98;64.90;100694.63;6241339;23;19922;-83
2023/10/28 09:36:04;;;;;;;;;;;;;;;22.02;64.77;100696.41;6241184;23;19908;-84
2023/10/28 09:38:29;;;;;;;;;;;;;;;21.99;64.62;100697.25;6241947;23;19979;-84
2023/10/28 09:40:55;;;;;;;;;;;;;;;22.02;64.43;100699.06;6241524;23;20327;-84
2023/10/28 09:43:20;;;;;;;;;;;;;;;22.01;64.82;100697.28;6241850;23;19914;-84
2023/10/28 09:45:47;;;;;;;;;;;;;;;22.04;64.60;100694.66;6215802;23;20358;-86
2023/10/28 09:48:15;;;;;;;;;;;;;;;22.08;64.45;100697.34;6240838;23;19914;-85
2023/10/28 09:50:48;;;;;;;;;;;;;;;22.05;64.39;100689.31;6241346;23;20467;-85
2023/10/28 09:53:15;;;;;;;;;;;;;;;22.05;64.26;100689.31;6243792;23;19918;-86
2023/10/28 09:55:41;;;;;;;;;;;;;;;22.07;64.15;100692.00;6242546;23;19914;-85
2023/10/28 09:58:27;;;;;;;;;;;;;;;22.08;64.21;100684.03;6241279;23;19982;-86
2023/10/28 10:00:56;;;;;;;;;;;;;;;22.09;64.42;100692.91;6241267;23;19911;-85
2023/10/28 10:03:25;;;;;;;;;;;;;;;22.07;64.70;100676.94;6241873;23;19908;-85
2023/10/28 10:05:53;;;;;;;;;;;;;;;22.05;64.69;100680.47;6243875;23;20000;-85
2023/10/28 10:08:22;;;;;;;;;;;;;;;22.02;64.57;100676.03;6215951;23;19911;-85
2023/10/28 10:10:48;;;;;;;;;;;;;;;22.04;64.88;100681.34;6244012;23;20409;-85
2023/10/28 10:13:16;;;;;;;;;;;;;;;22.04;64.94;100684.03;6217140;23;19930;-84
2023/10/28 10:15:51;;;;;;;;;;;;;;;22.05;65.05;100680.47;6242549;23;19974;-84
2023/10/28 10:18:21;;;;;;;;;;;;;;;22.06;64.94;100677.81;6242483;23;19961;-84
2023/10/28 10:20:46;;;;;;;;;;;;;;;22.02;65.20;100675.16;6241983;23;20335;-84
2023/10/28 10:23:12;;;;;;;;;;;;;;;21.99;65.24;100672.44;6242130;23;19907;-85
2023/10/28 10:25:43;;;;;;;;;;;;;;;22.02;65.17;100684.00;6242314;23;19916;-85
2023/10/28 10:28:19;;;;;;;;;;;;;;;22.04;65.34;100673.38;6240549;23;19912;-85
2023/10/28 10:30:44;;;;;;;;;;;;;;;22.05;65.14;100672.47;6238716;23;19962;-84
2023/10/28 10:33:10;;;;;;;;;;;;;;;22.04;65.11;100666.28;6242218;23;19915;-85
2023/10/28 10:35:39;;;;;;;;;;;;;;;22.02;65.41;100672.47;6241326;23;19982;-85
2023/10/28 10:38:05;;;;;;;;;;;;;;;22.06;65.92;100679.59;6239055;23;19977;-84
2023/10/28 10:40:32;;;;;;;;;;;;;;;22.07;65.50;100682.25;6238446;23;19914;-84
2023/10/28 10:43:07;;;;;;;;;;;;;;;22.10;65.14;100679.63;6212634;23;20268;-85
2023/10/28 10:45:34;;;;;;;;;;;;;;;22.08;65.10;100660.09;6213106;23;19916;-84
2023/10/28 10:48:01;;;;;;;;;;;;;;;22.10;64.98;100670.75;6239410;23;19937;-85
2023/10/28 10:50:26;;;;;;;;;;;;;;;22.09;64.91;100666.31;6240097;23;19907;-83
2023/10/28 10:52:51;;;;;;;;;;;;;;;22.11;64.90;100669.88;6240485;23;19957;-84
2023/10/28 10:55:23;;;;;;;;;;;;;;;22.11;64.99;100668.06;6212205;23;20307;-84
2023/10/28 10:57:52;;;;;;;;;;;;;;;22.06;65.06;100675.16;6238977;23;19911;-85
2023/10/28 11:00:18;;;;;;;;;;;;;;;22.10;65.01;100671.63;6239729;23;20582;-84
2023/10/28 11:02:44;;;;;;;;;;;;;;;22.11;64.93;100665.41;6239969;23;19918;-85
2023/10/28 11:05:10;;;;;;;;;;;;;;;22.09;65.00;100663.63;6239105;23;19915;-84
2023/10/28 11:07:36;;;;;;;;;;;;;;;22.11;65.02;100662.75;6238068;23;19938;-85
2023/10/28 11:10:04;;;;;;;;;;;;;;;22.13;65.07;100668.09;6240457;23;19950;-83
2023/10/28 11:12:30;;;;;;;;;;;;;;;22.14;65.25;100668.13;6240361;23;19908;-85
2023/10/28 11:14:57;;;;;;;;;;;;;;;22.15;65.01;100672.53;6239629;23;20342;-84
2023/10/28 11:17:23;;;;;;;;;;;;;;;22.13;65.00;100665.44;6239253;23;20340;-85
2023/10/28 11:19:49;;;;;;;;;;;;;;;22.13;65.07;100668.97;6237882;23;19911;-84
2023/10/28 11:22:15;;;;;;;;;;;;;;;22.18;64.95;100661.00;6237099;23;19999;-84
2023/10/28 11:24:41;;;;;;;;;;;;;;;22.15;65.21;100663.69;6238673;23;19939;-84
2023/10/28 11:27:06;;;;;;;;;;;;;;;22.16;65.50;100663.69;6238992;23;19912;-85
2023/10/28 11:29:32;;;;;;;;;;;;;;;22.21;65.33;100668.16;6240747;23;19989;-83
2023/10/28 11:32:03;;;;;;;;;;;;;;;22.23;65.27;100669.97;6240648;23;19908;-84
2023/10/28 11:34:29;;;;;;;;;;;;;;;22.25;65.64;100667.31;6240067;23;19919;-84
2023/10/28 11:36:55;;;;;;;;;;;;;;;22.23;65.71;100661.09;6241662;23;20394;-83
2023/10/28 11:39:20;;;;;;;;;;;;;;;22.23;65.83;100661.09;6241514;23;20371;-83
2023/10/28 11:41:49;;;;;;;;;;;;;;;22.27;66.24;100666.44;6243604;23;19931;-85
2023/10/28 11:44:14;;;;;;;;;;;;;;;22.30;66.48;100670.88;6241481;23;19914;-85
2023/10/28 11:46:40;;;;;;;;;;;;;;;22.35;66.51;100672.69;6242963;23;19915;-83
2023/10/28 11:49:05;;;;;;;;;;;;;;;22.43;66.46;100664.72;6244594;23;19983;-83
2023/10/28 11:51:32;;;;;;;;;;;;;;;22.46;66.15;100667.41;6244537;23;19911;-83
2023/10/28 11:53:58;;;;;;;;;;;;;;;22.52;66.01;100659.44;6243152;23;20344;-83
2023/10/28 11:56:23;;;;;;;;;;;;;;;22.52;65.89;100669.16;6242346;23;19938;-85
2023/10/28 11:58:50;;;;;;;;;;;;;;;22.58;65.91;100668.31;6243006;23;19911;-83
2023/10/28 12:01:16;;;;;;;;;;;;;;;22.61;65.15;100663.91;6244676;23;20312;-83
2023/10/28 12:03:41;;;;;;;;;;;;;;;22.63;64.79;100667.44;6243332;23;19908;-84
2023/10/28 12:06:06;;;;;;;;;;;;;;;22.68;64.75;100664.78;6242900;23;19916;-83
2023/10/28 12:08:32;;;;;;;;;;;;;;;22.69;65.41;100666.56;6244524;23;19907;-83
2023/10/28 12:10:57;;;;;;;;;;;;;;;22.71;65.30;100670.13;6244170;23;19984;-84
2023/10/28 12:13:25;;;;;;;;;;;;;;;22.71;65.25;100676.34;6244648;23;19908;-83
2023/10/28 12:15:51;;;;;;;;;;;;;;;22.74;65.13;100675.47;6217672;23;19945;-83
2023/10/28 12:18:16;;;;;;;;;;;;;;;22.73;65.38;100677.25;6243899;23;19907;-83
2023/10/28 12:20:41;;;;;;;;;;;;;;;22.81;65.45;100665.72;6216409;23;20397;-82
2023/10/28 12:23:09;;;;;;;;;;;;;;;22.77;64.92;100670.13;6242477;23;19908;-83
2023/10/28 12:25:35;;;;;;;;;;;;;;;22.79;64.50;100665.69;6243136;23;20524;-84
2023/10/28 12:28:00;;;;;;;;;;;;;;;22.81;64.42;100657.72;6239724;23;19912;-82
2023/10/28 12:30:25;;;;;;;;;;;;;;;22.79;64.30;100652.38;6243178;23;19915;-82
2023/10/28 12:32:51;;;;;;;;;;;;;;;22.77;65.71;100659.47;6243249;23;19994;-83